Time;durP1;ratioP1;P1;durP2;ratioP2;P2;SDS_P1;SDS_P2;PMS_P1;PMS_P2;Temp;Humidity;BMP_temperature;BMP_pressure;BME280_temperature;BME280_humidity;BME280_pressure;Samples;Min_cycle;Max_cycle;Signal;HPM_P1;HPM_P2
2023/09/28 00:02:45;;;;;;;6.40;3.13;;;;;;;19.00;59.97;95097.34;5071007;28;20184;-69
2023/09/28 00:05:14;;;;;;;10.15;3.55;;;;;;;18.96;59.51;95097.06;5070873;28;20660;-69
2023/09/28 00:07:44;;;;;;;23.05;3.97;;;;;;;18.91;59.75;95102.38;5070836;28;20178;-69
2023/09/28 00:10:11;;;;;;;8.70;3.10;;;;;;;18.93;59.53;95099.44;5069837;28;20409;-69
2023/09/28 00:12:42;;;;;;;5.53;2.83;;;;;;;18.91;59.79;95099.69;5070624;28;20204;-69
2023/09/28 00:15:09;;;;;;;5.18;2.65;;;;;;;18.81;60.15;95104.97;5070730;28;20178;-69
2023/09/28 00:17:36;;;;;;;6.32;2.83;;;;;;;18.94;59.83;95093.84;5069259;28;20436;-69
2023/09/28 00:20:02;;;;;;;8.55;3.35;;;;;;;19.01;59.75;95091.75;5070225;28;20945;-69
2023/09/28 00:22:27;;;;;;;9.23;2.83;;;;;;;18.97;59.74;95090.66;5070028;28;20901;-69
2023/09/28 00:24:53;;;;;;;7.10;2.80;;;;;;;18.81;59.85;95060.41;5069486;28;20496;-69
2023/09/28 00:27:18;;;;;;;7.70;2.90;;;;;;;18.95;59.85;95090.09;5070133;28;20433;-69
2023/09/28 00:29:46;;;;;;;5.70;3.00;;;;;;;19.03;59.93;95089.63;5070523;28;20253;-69
2023/09/28 00:32:12;;;;;;;7.18;2.47;;;;;;;19.03;59.72;95086.94;5070241;28;20242;-69
2023/09/28 00:34:38;;;;;;;10.05;3.22;;;;;;;18.94;59.88;95088.50;5068948;28;20304;-69
2023/09/28 00:37:04;;;;;;;5.97;2.90;;;;;;;18.93;60.17;95089.59;5070243;28;21664;-69
2023/09/28 00:39:31;;;;;;;5.30;3.15;;;;;;;18.92;60.45;95095.97;5070086;28;20202;-69
2023/09/28 00:41:56;;;;;;;11.27;4.10;;;;;;;18.53;62.35;95089.22;5069296;28;20413;-71
2023/09/28 00:44:22;;;;;;;6.40;3.27;;;;;;;18.22;63.98;95080.97;5068886;28;20501;-69
2023/09/28 00:46:48;;;;;;;12.10;3.78;;;;;;;18.12;64.30;95096.06;5069639;28;20460;-69
2023/09/28 00:49:16;;;;;;;9.02;3.60;;;;;;;18.09;64.58;95095.50;5069579;28;20530;-69
2023/09/28 00:51:44;;;;;;;6.28;3.50;;;;;;;18.02;64.74;95084.25;5067614;28;20755;-69
2023/09/28 00:54:11;;;;;;;9.93;3.63;;;;;;;18.13;64.63;95095.81;5069176;28;20505;-69
2023/09/28 00:56:37;;;;;;;7.57;3.67;;;;;;;18.15;64.56;95082.25;5069948;28;20174;-69
2023/09/28 00:59:02;;;;;;;6.90;3.05;;;;;;;18.19;64.27;95086.00;5070041;28;20204;-69
2023/09/28 01:01:29;;;;;;;4.72;3.05;;;;;;;18.16;64.56;95091.84;5070070;28;20284;-69
2023/09/28 01:03:56;;;;;;;6.45;3.40;;;;;;;18.01;64.75;95077.31;5070253;28;20183;-69
2023/09/28 01:06:24;;;;;;;11.32;3.78;;;;;;;18.02;64.86;95097.56;5069985;28;20196;-69
2023/09/28 01:08:50;;;;;;;9.40;3.67;;;;;;;17.90;65.24;95080.91;5069884;28;20206;-69
2023/09/28 01:11:15;;;;;;;6.05;3.28;;;;;;;17.89;65.23;95094.50;5069976;28;20277;-70
2023/09/28 01:13:42;;;;;;;9.55;4.03;;;;;;;17.77;65.93;95091.16;5069980;28;21001;-70
2023/09/28 01:16:08;;;;;;;8.27;3.10;;;;;;;17.66;66.41;95100.88;5069729;28;20174;-69
2023/09/28 01:18:33;;;;;;;7.13;3.60;;;;;;;17.59;66.72;95089.59;5069569;28;20186;-69
2023/09/28 01:20:59;;;;;;;6.25;2.90;;;;;;;17.51;66.68;95092.69;5069699;28;20632;-70
2023/09/28 01:23:26;;;;;;;10.05;3.53;;;;;;;17.28;67.00;95070.59;5069481;28;20222;-69
2023/09/28 01:25:52;;;;;;;8.45;3.65;;;;;;;17.30;67.34;95083.63;5069596;28;20235;-69
2023/09/28 01:28:18;;;;;;;7.20;3.63;;;;;;;17.08;67.45;95080.97;5069261;28;20269;-69
2023/09/28 01:30:44;;;;;;;7.05;3.15;;;;;;;17.05;67.82;95093.94;5068276;28;20182;-69
2023/09/28 01:33:09;;;;;;;7.50;3.42;;;;;;;16.82;68.13;95079.81;5069548;28;20271;-69
2023/09/28 01:35:35;;;;;;;6.78;3.13;;;;;;;16.82;68.97;95095.75;5069399;28;20265;-69
2023/09/28 01:38:21;;;;;;;9.52;2.70;;;;;;;16.66;69.34;95101.91;5068181;28;20182;-69
2023/09/28 01:40:48;;;;;;;4.88;3.15;;;;;;;16.59;69.63;95101.22;5069047;28;20202;-69
2023/09/28 01:43:16;;;;;;;11.68;3.70;;;;;;;16.62;69.92;95106.06;5069005;28;20489;-69
2023/09/28 01:45:42;;;;;;;6.85;3.67;;;;;;;16.55;69.96;95102.75;5069306;28;20182;-69
2023/09/28 01:48:07;;;;;;;8.88;3.78;;;;;;;16.50;70.52;95102.66;5069157;28;20186;-69
2023/09/28 01:50:33;;;;;;;10.50;3.35;;;;;;;16.40;70.90;95102.50;5069327;28;20281;-69
2023/09/28 01:52:58;;;;;;;4.90;2.88;;;;;;;16.34;71.06;95100.81;5069318;28;20178;-69
2023/09/28 01:55:24;;;;;;;5.93;2.75;;;;;;;16.19;71.38;95088.88;5069197;28;20186;-69
2023/09/28 01:57:49;;;;;;;6.43;3.60;;;;;;;16.27;71.66;95100.13;5069479;28;20299;-69
2023/09/28 02:00:20;;;;;;;8.07;3.72;;;;;;;16.13;71.77;95094.34;5068076;28;20202;-69
2023/09/28 02:02:46;;;;;;;9.30;4.00;;;;;;;16.06;71.91;95091.03;5067912;28;20197;-69
2023/09/28 02:05:16;;;;;;;6.75;4.07;;;;;;;15.94;72.30;95075.13;5069268;28;20189;-69
2023/09/28 02:07:42;;;;;;;6.47;3.65;;;;;;;16.00;72.40;95092.00;5069245;28;20184;-70
2023/09/28 02:10:09;;;;;;;7.22;3.97;;;;;;;15.94;72.54;95099.03;5069130;28;20178;-69
2023/09/28 02:12:39;;;;;;;8.45;3.75;;;;;;;15.88;72.78;95099.19;5067797;28;20526;-69
2023/09/28 02:15:05;;;;;;;7.50;3.40;;;;;;;15.87;72.53;95093.06;5069084;28;20187;-69
2023/09/28 02:17:30;;;;;;;9.63;4.13;;;;;;;15.85;72.43;95095.97;5069072;28;20659;-69
2023/09/28 02:19:56;;;;;;;8.45;3.17;;;;;;;15.85;72.41;95100.47;5068919;28;20256;-69
2023/09/28 02:22:22;;;;;;;8.52;3.60;;;;;;;15.74;73.14;95102.09;5068352;28;20441;-69
2023/09/28 02:24:50;;;;;;;5.40;3.50;;;;;;;15.71;73.71;95104.44;5068883;28;20414;-69
2023/09/28 02:27:15;;;;;;;10.55;4.28;;;;;;;15.70;74.01;95105.50;5069013;28;20539;-69
2023/09/28 02:29:41;;;;;;;11.43;4.70;;;;;;;15.59;74.22;95103.66;5068157;28;20409;-69
2023/09/28 02:32:06;;;;;;;6.43;3.90;;;;;;;15.45;74.68;95101.25;5069329;28;20182;-69
2023/09/28 02:34:34;;;;;;;5.72;3.50;;;;;;;15.57;74.73;95109.19;5068872;28;20170;-69
2023/09/28 02:37:01;;;;;;;9.07;4.38;;;;;;;15.56;74.45;95104.97;5068933;28;20501;-69
2023/09/28 02:39:28;;;;;;;10.23;4.80;;;;;;;15.46;74.62;95096.75;5070202;28;20273;-69
2023/09/28 02:41:54;;;;;;;10.85;3.55;;;;;;;15.53;74.59;95112.53;5072613;28;20189;-69
2023/09/28 02:44:19;;;;;;;10.43;3.97;;;;;;;15.37;74.51;95093.66;5072384;28;20178;-69
2023/09/28 02:46:45;;;;;;;7.70;3.40;;;;;;;15.45;74.77;95117.19;5072283;28;20205;-69
2023/09/28 02:49:10;;;;;;;8.75;4.10;;;;;;;15.33;75.23;95118.22;5072506;28;20202;-69
2023/09/28 02:51:35;;;;;;;12.75;3.92;;;;;;;15.29;75.69;95120.56;5072404;28;20210;-69
2023/09/28 02:54:01;;;;;;;20.05;5.07;;;;;;;15.13;76.45;95121.28;5072199;28;20235;-69
2023/09/28 02:56:26;;;;;;;8.10;4.45;;;;;;;14.98;76.98;95115.63;5071076;28;20422;-69
2023/09/28 02:58:51;;;;;;;10.80;4.40;;;;;;;14.89;77.11;95117.81;5071003;28;20484;-69
2023/09/28 03:01:21;;;;;;;9.07;4.10;;;;;;;14.77;77.25;95100.31;5070799;28;20875;-69
2023/09/28 03:03:46;;;;;;;16.23;4.50;;;;;;;15.07;76.36;95130.13;5071534;28;20418;-69
2023/09/28 03:06:12;;;;;;;7.13;3.88;;;;;;;15.21;75.45;95126.22;5071991;28;20255;-69
2023/09/28 03:08:37;;;;;;;9.20;3.40;;;;;;;15.31;75.46;95122.97;5070634;28;20213;-69
2023/09/28 03:11:03;;;;;;;9.50;3.70;;;;;;;15.35;75.02;95121.47;5071550;28;20637;-69
2023/09/28 03:13:28;;;;;;;9.75;3.90;;;;;;;15.29;75.21;95117.91;5071703;28;20213;-69
2023/09/28 03:15:54;;;;;;;14.82;3.97;;;;;;;15.24;75.30;95115.13;5071687;28;20217;-69
2023/09/28 03:18:20;;;;;;;10.32;4.05;;;;;;;15.15;75.87;95116.53;5071582;28;20759;-69
2023/09/28 03:20:45;;;;;;;14.63;4.18;;;;;;;15.03;76.35;95115.75;5071823;28;20217;-70
2023/09/28 03:23:13;;;;;;;17.95;4.45;;;;;;;14.94;76.67;95106.53;5071446;28;20230;-69
2023/09/28 03:25:38;;;;;;;9.70;5.25;;;;;;;15.03;76.78;95121.06;5071708;28;20181;-70
2023/09/28 03:28:04;;;;;;;12.23;4.05;;;;;;;15.03;77.09;95116.56;5071676;28;20182;-70
2023/09/28 03:30:30;;;;;;;9.43;3.92;;;;;;;14.99;76.79;95112.75;5071526;28;20206;-69
2023/09/28 03:32:56;;;;;;;10.32;3.75;;;;;;;15.02;76.75;95116.78;5071307;28;20175;-69
2023/09/28 03:35:22;;;;;;;14.07;4.85;;;;;;;14.97;77.11;95114.81;5070113;28;20193;-69
2023/09/28 03:37:48;;;;;;;11.75;4.72;;;;;;;14.99;77.46;95114.59;5070179;28;20182;-69
2023/09/28 03:40:15;;;;;;;6.25;4.57;;;;;;;14.95;77.88;95116.09;5071497;28;20238;-69
2023/09/28 03:42:45;;;;;;;9.52;4.95;;;;;;;14.88;77.99;95100.28;5071330;28;20323;-69
2023/09/28 03:45:14;;;;;;;10.63;4.78;;;;;;;14.94;77.88;95119.78;5071330;28;20174;-69
2023/09/28 03:47:40;;;;;;;5.80;4.53;;;;;;;14.90;77.95;95113.31;5071240;28;20655;-69
2023/09/28 03:50:09;;;;;;;10.32;5.13;;;;;;;14.89;78.57;95117.00;5071263;28;20182;-69
2023/09/28 03:52:35;;;;;;;15.43;4.85;;;;;;;14.85;78.73;95121.16;5070546;28;20189;-69
2023/09/28 03:55:00;;;;;;;13.00;4.47;;;;;;;14.83;78.70;95129.34;5071134;28;20178;-69
2023/09/28 03:57:25;;;;;;;10.85;4.30;;;;;;;14.77;78.66;95113.56;5071205;28;20725;-69
2023/09/28 03:59:51;;;;;;;7.25;4.05;;;;;;;14.83;79.00;95124.03;5070944;28;20211;-69
2023/09/28 04:02:16;;;;;;;8.23;4.28;;;;;;;14.76;78.92;95110.09;5070951;28;20569;-69
2023/09/28 04:04:42;;;;;;;8.07;4.55;;;;;;;14.85;78.64;95124.63;5070868;28;20262;-69
2023/09/28 04:07:08;;;;;;;7.65;4.82;;;;;;;14.85;79.09;95126.47;5070890;28;20666;-69
2023/09/28 04:09:33;;;;;;;8.43;3.92;;;;;;;14.80;78.97;95110.44;5070677;28;20693;-69
2023/09/28 04:12:00;;;;;;;13.73;4.28;;;;;;;14.85;79.35;95123.81;5070549;28;20186;-69
2023/09/28 04:14:25;;;;;;;13.13;4.95;;;;;;;14.88;79.12;95126.00;5070598;28;20178;-69
2023/09/28 04:16:51;;;;;;;10.07;4.50;;;;;;;14.85;79.23;95121.97;5070579;28;20602;-69
2023/09/28 04:19:16;;;;;;;18.75;4.95;;;;;;;14.85;79.34;95119.31;5070558;28;20710;-69
2023/09/28 04:21:42;;;;;;;15.13;5.07;;;;;;;14.84;79.45;95123.00;5070555;28;20635;-70
2023/09/28 04:24:08;;;;;;;19.83;4.75;;;;;;;14.77;79.38;95102.97;5070580;28;20228;-69
2023/09/28 04:26:33;;;;;;;21.58;5.85;;;;;;;14.75;78.95;95108.47;5069793;28;20212;-69
2023/09/28 04:28:59;;;;;;;16.83;5.20;;;;;;;14.83;79.21;95129.34;5070911;28;20171;-69
2023/09/28 04:31:24;;;;;;;32.85;5.43;;;;;;;14.84;79.06;95123.00;5068685;28;20666;-69
2023/09/28 04:33:50;;;;;;;18.20;5.47;;;;;;;14.85;79.25;95123.81;5070076;28;20174;-69
2023/09/28 04:36:16;;;;;;;23.00;5.38;;;;;;;14.74;79.33;95112.16;5069756;28;20206;-69
2023/09/28 04:38:42;;;;;;;28.92;5.43;;;;;;;14.84;79.70;95130.16;5070171;28;20634;-69
2023/09/28 04:41:08;;;;;;;18.13;5.75;;;;;;;14.89;79.66;95135.56;5070288;28;20236;-69
2023/09/28 04:43:33;;;;;;;15.77;5.18;;;;;;;14.90;79.72;95137.19;5070007;28;20206;-69
2023/09/28 04:46:04;;;;;;;11.45;4.93;;;;;;;14.92;79.46;95133.28;5069988;28;20174;-69
2023/09/28 04:48:30;;;;;;;26.50;5.40;;;;;;;15.09;79.35;95141.34;5069651;28;20265;-69
2023/09/28 04:50:55;;;;;;;16.27;4.95;;;;;;;15.13;79.12;95149.66;5069964;28;20184;-69
2023/09/28 04:53:21;;;;;;;34.05;6.20;;;;;;;15.20;79.18;95151.13;5070169;28;20182;-69
2023/09/28 04:55:46;;;;;;;35.00;5.28;;;;;;;15.26;78.80;95144.88;5069962;28;20309;-69
2023/09/28 04:58:12;;;;;;;15.65;5.95;;;;;;;15.24;78.37;95146.16;5070640;28;20261;-69
2023/09/28 05:00:38;;;;;;;32.92;5.97;;;;;;;15.36;78.53;95154.91;5070292;28;20206;-69
2023/09/28 05:03:04;;;;;;;30.50;6.63;;;;;;;15.41;78.34;95157.66;5069645;28;20254;-69
2023/09/28 05:05:30;;;;;;;31.02;8.02;;;;;;;15.47;78.62;95156.75;5070406;28;20187;-69
2023/09/28 05:07:55;;;;;;;14.77;5.53;;;;;;;15.54;78.31;95156.66;5070428;28;20178;-69
2023/09/28 05:10:21;;;;;;;22.10;6.68;;;;;;;15.55;78.44;95152.97;5070478;28;20189;-69
2023/09/28 05:12:46;;;;;;;19.85;6.95;;;;;;;15.55;78.49;95148.47;5070530;28;20678;-69
2023/09/28 05:15:13;;;;;;;28.42;8.10;;;;;;;15.62;78.26;95148.31;5070498;28;20182;-69
2023/09/28 05:17:38;;;;;;;22.33;6.80;;;;;;;15.72;77.85;95154.66;5070395;28;20625;-69
2023/09/28 05:20:04;;;;;;;31.33;6.93;;;;;;;15.82;77.83;95164.66;5069787;28;20771;-70
2023/09/28 05:22:30;;;;;;;20.92;6.57;;;;;;;15.90;78.09;95156.34;5068238;28;20218;-69
2023/09/28 05:24:55;;;;;;;54.53;8.07;;;;;;;16.04;77.96;95162.16;5069838;28;20678;-69
2023/09/28 05:27:21;;;;;;;35.90;6.75;;;;;;;16.11;77.76;95168.94;5070125;28;20178;-69
2023/09/28 05:29:46;;;;;;;18.85;6.57;;;;;;;16.19;76.70;95167.75;5068726;28;20166;-69
2023/09/28 05:32:12;;;;;;;26.45;6.55;;;;;;;16.28;76.57;95168.97;5069554;28;20178;-69
2023/09/28 05:34:38;;;;;;;37.40;7.53;;;;;;;16.35;77.03;95161.66;5068512;28;20644;-69
2023/09/28 05:37:03;;;;;;;39.20;7.32;;;;;;;16.54;76.89;95178.19;5070105;28;20658;-69
2023/09/28 05:39:29;;;;;;;32.72;7.82;;;;;;;16.65;76.99;95174.72;5069712;28;20202;-69
2023/09/28 05:41:56;;;;;;;16.77;5.63;;;;;;;16.83;72.70;95181.66;5068852;28;20182;-69
2023/09/28 05:44:22;;;;;;;23.25;6.25;;;;;;;16.96;71.93;95187.44;5069880;28;20647;-69
2023/09/28 05:46:47;;;;;;;11.63;5.15;;;;;;;17.08;69.69;95183.91;5069857;28;20185;-69
2023/09/28 05:49:13;;;;;;;12.45;4.20;;;;;;;17.26;68.52;95192.44;5069837;28;20178;-69
2023/09/28 05:51:38;;;;;;;10.55;3.65;;;;;;;17.39;67.24;95187.81;5069843;28;20349;-68
2023/09/28 05:54:04;;;;;;;19.35;4.68;;;;;;;17.51;66.12;95185.88;5070400;28;20196;-69
2023/09/28 05:56:29;;;;;;;17.10;3.65;;;;;;;17.62;64.93;95182.31;5070110;28;20182;-69
2023/09/28 05:58:55;;;;;;;11.05;3.22;;;;;;;17.70;64.56;95192.56;5069730;28;20241;-70
2023/09/28 06:01:22;;;;;;;8.88;3.47;;;;;;;17.83;63.53;95189.50;5069557;28;20261;-69
2023/09/28 06:03:47;;;;;;;6.57;3.20;;;;;;;17.94;62.75;95190.44;5069184;28;20186;-69
2023/09/28 06:06:16;;;;;;;8.95;2.92;;;;;;;17.91;62.50;95196.25;5069656;28;20178;-69
2023/09/28 06:08:43;;;;;;;9.85;3.35;;;;;;;17.92;62.54;95189.88;5069574;28;20266;-69
2023/09/28 08:32:06;;;;;;;18.80;2.92;;;;;;;22.65;53.15;95210.03;5042963;28;21115;-70
2023/09/28 08:34:35;;;;;;;11.02;2.97;;;;;;;23.01;51.81;95189.09;5048167;28;20561;-69
2023/09/28 08:37:03;;;;;;;11.57;2.70;;;;;;;23.31;50.80;95192.38;5047549;28;20186;-69
2023/09/28 08:39:31;;;;;;;6.75;2.50;;;;;;;23.15;49.98;95188.22;5049001;28;20566;-70
2023/09/28 08:42:01;;;;;;;12.95;2.60;;;;;;;22.87;50.16;95200.50;5049637;28;20660;-69
2023/09/28 08:44:31;;;;;;;4.43;2.88;;;;;;;22.93;50.78;95182.44;5048830;28;20702;-70
2023/09/28 08:46:58;;;;;;;8.20;2.63;;;;;;;23.43;49.25;95191.19;5051617;28;20191;-70
2023/09/28 08:49:25;;;;;;;6.15;2.70;;;;;;;23.43;49.34;95188.50;5055861;28;20182;-70
2023/09/28 08:51:54;;;;;;;11.68;3.22;;;;;;;23.48;49.47;95196.50;5056778;28;20177;-70
2023/09/28 08:54:21;;;;;;;12.40;2.90;;;;;;;23.72;49.20;95193.88;5058295;28;20183;-70
2023/09/28 08:56:48;;;;;;;11.27;2.80;;;;;;;23.69;48.29;95192.59;5059982;28;20195;-70
2023/09/28 08:59:16;;;;;;;3.35;2.70;;;;;;;24.01;49.14;95190.06;5048260;28;20368;-70
2023/09/28 09:01:42;;;;;;;9.40;2.60;;;;;;;24.01;47.08;95198.16;5049581;28;20286;-70
2023/09/28 09:04:09;;;;;;;5.47;2.20;;;;;;;23.44;48.40;95161.31;5050026;28;20183;-70
2023/09/28 09:06:35;;;;;;;14.02;3.05;;;;;;;23.63;47.83;95185.63;5049710;28;20665;-70
2023/09/28 09:09:03;;;;;;;6.78;2.50;;;;;;;23.68;48.76;95193.66;5048071;28;20182;-70
2023/09/28 09:11:30;;;;;;;3.58;2.40;;;;;;;23.85;47.38;95187.84;5049810;28;20183;-69
2023/09/28 09:13:56;;;;;;;5.88;2.20;;;;;;;24.23;48.19;95186.88;5048087;28;20199;-70
2023/09/28 09:16:23;;;;;;;8.20;2.40;;;;;;;24.08;46.84;95184.34;5046063;28;20233;-69
2023/09/28 09:18:48;;;;;;;8.77;2.50;;;;;;;23.82;49.46;95180.34;5050936;28;20273;-70
2023/09/28 09:21:14;;;;;;;5.43;2.60;;;;;;;24.15;48.54;95183.97;5048228;28;20267;-70
2023/09/28 09:23:40;;;;;;;8.30;2.80;;;;;;;24.26;47.70;95188.19;5048885;28;20182;-70
2023/09/28 09:26:17;;;;;;;5.97;2.30;;;;;;;24.44;47.16;95185.53;5049106;28;20189;-69
2023/09/28 09:28:43;;;;;;;11.98;2.63;;;;;;;24.71;46.76;95179.50;5049002;28;20178;-70
2023/09/28 09:31:09;;;;;;;12.50;3.10;;;;;;;24.74;46.69;95181.59;5048357;28;20222;-70
2023/09/28 09:33:36;;;;;;;8.25;2.60;;;;;;;24.39;46.60;95188.28;5048891;28;20659;-70
2023/09/28 09:36:01;;;;;;;4.93;2.53;;;;;;;23.86;48.60;95173.31;5049057;28;20179;-70
2023/09/28 09:38:31;;;;;;;5.88;2.35;;;;;;;23.95;48.29;95183.16;5049440;28;20178;-70
2023/09/28 09:41:06;;;;;;;10.88;2.45;;;;;;;24.05;48.29;95182.22;5049030;28;20203;-70
2023/09/28 09:43:36;;;;;;;11.65;3.15;;;;;;;24.04;48.00;95173.34;5049090;28;20193;-68
2023/09/28 09:46:09;;;;;;;8.07;2.33;;;;;;;23.91;48.62;95171.34;5048609;28;20618;-68
2023/09/28 09:48:42;;;;;;;6.05;2.97;;;;;;;24.00;47.97;95163.44;5048900;28;20185;-68
2023/09/28 09:51:15;;;;;;;5.28;2.53;;;;;;;24.18;48.33;95173.47;5053043;28;20175;-68
2023/09/28 09:53:45;;;;;;;9.38;2.58;;;;;;;24.10;47.83;95155.25;5052532;28;20213;-68
2023/09/28 09:56:12;;;;;;;7.40;2.50;;;;;;;24.27;48.01;95160.19;5053281;28;20564;-68
2023/09/28 09:58:49;;;;;;;15.88;3.53;;;;;;;24.34;48.22;95156.06;5053105;28;20182;-68
2023/09/28 10:01:16;;;;;;;12.48;3.30;;;;;;;24.57;47.72;95158.97;5053295;28;20201;-68
2023/09/28 10:03:47;;;;;;;6.32;2.78;;;;;;;24.66;47.43;95155.31;5053134;28;20179;-68
2023/09/28 10:06:15;;;;;;;9.52;2.72;;;;;;;24.56;47.41;95165.47;5053291;28;20171;-68
2023/09/28 10:08:42;;;;;;;8.27;2.47;;;;;;;23.99;48.76;95157.28;5052762;28;20211;-70
2023/09/28 10:11:10;;;;;;;6.65;2.53;;;;;;;23.94;49.22;95160.03;5053135;28;20170;-68
2023/09/28 10:13:36;;;;;;;16.50;2.75;;;;;;;23.78;50.20;95142.47;5053158;28;20183;-69
2023/09/28 10:16:03;;;;;;;7.25;2.38;;;;;;;23.82;51.49;95162.31;5053328;28;20183;-68
2023/09/28 10:18:30;;;;;;;3.70;2.30;;;;;;;23.53;52.27;95164.22;5052618;28;20261;-70
2023/09/28 10:20:59;;;;;;;8.18;2.65;;;;;;;23.25;53.47;95153.19;5052745;28;20260;-70
2023/09/28 10:23:26;;;;;;;15.18;3.58;;;;;;;23.17;54.03;95167.25;5052979;28;20229;-70
2023/09/28 10:26:15;;;;;;;4.35;2.40;;;;;;;23.04;54.52;95162.50;5052887;28;20183;-70
2023/09/28 10:29:06;;;;;;;19.17;3.10;;;;;;;22.85;55.33;95159.69;5052660;28;20186;-70
2023/09/28 10:31:41;;;;;;;7.80;2.83;;;;;;;22.84;55.31;95157.28;5052315;28;20217;-68
2023/09/28 10:34:08;;;;;;;11.65;3.63;;;;;;;22.79;55.69;95152.75;5052652;28;20705;-69
2023/09/28 10:36:37;;;;;;;5.47;2.28;;;;;;;22.86;55.61;95144.38;5052702;28;20218;-69
2023/09/28 10:39:14;;;;;;;7.60;2.92;;;;;;;22.93;55.10;95151.03;5052642;28;20190;-69
2023/09/28 10:41:44;;;;;;;36.60;3.30;;;;;;;22.80;54.66;95132.91;5052599;28;20183;-69
2023/09/28 10:44:14;;;;;;;9.98;3.85;;;;;;;22.93;54.07;95151.03;5052467;28;20252;-69
2023/09/28 10:46:41;;;;;;;6.03;3.00;;;;;;;22.84;54.60;95136.59;5052848;28;20594;-69
2023/09/28 10:49:06;;;;;;;5.05;2.33;;;;;;;22.96;54.00;95138.94;5052026;28;20186;-69
2023/09/28 10:51:32;;;;;;;7.60;2.70;;;;;;;23.13;53.68;95139.31;5051912;28;20175;-68
2023/09/28 10:53:58;;;;;;;10.38;3.47;;;;;;;23.26;53.44;95140.56;5052359;28;20183;-69
2023/09/28 10:56:24;;;;;;;5.28;2.75;;;;;;;23.33;53.48;95139.16;5052231;28;20233;-69
2023/09/28 10:58:50;;;;;;;4.88;2.70;;;;;;;23.36;53.53;95134.28;5052582;28;20182;-69
2023/09/28 11:01:15;;;;;;;6.40;3.00;;;;;;;23.26;54.00;95127.13;5050595;28;20199;-69
2023/09/28 11:03:41;;;;;;;8.02;3.75;;;;;;;23.35;54.05;95133.50;5052109;28;20183;-69
2023/09/28 11:06:09;;;;;;;8.18;3.15;;;;;;;23.42;53.31;95112.47;5052165;28;20174;-69
2023/09/28 11:08:36;;;;;;;5.03;2.92;;;;;;;23.79;53.38;95122.53;5051978;28;20178;-69
2023/09/28 11:11:03;;;;;;;5.95;2.90;;;;;;;24.11;52.98;95126.47;5051969;28;20590;-69
2023/09/28 11:13:29;;;;;;;4.57;2.35;;;;;;;24.13;51.54;95124.31;5051579;28;20609;-69
2023/09/28 11:15:55;;;;;;;12.93;3.15;;;;;;;23.96;52.08;95124.75;5051541;28;20175;-69
2023/09/28 11:18:23;;;;;;;6.03;2.60;;;;;;;23.78;52.93;95130.91;5051617;28;20228;-69
2023/09/28 11:20:48;;;;;;;9.63;2.35;;;;;;;23.85;52.69;95128.69;5051542;28;20190;-69
2023/09/28 11:23:14;;;;;;;9.13;3.20;;;;;;;23.68;52.63;95129.13;5051844;28;20171;-68
2023/09/28 11:25:40;;;;;;;10.07;3.10;;;;;;;23.56;52.58;95116.09;5051795;28;20209;-69
2023/09/28 11:28:07;;;;;;;4.07;2.40;;;;;;;23.64;52.61;95133.47;5033900;28;20179;-68
2023/09/28 11:30:32;;;;;;;5.00;2.65;;;;;;;23.55;52.69;95117.16;5051610;28;20599;-69
2023/09/28 11:32:58;;;;;;;11.75;3.10;;;;;;;23.61;52.92;95118.72;5051087;28;20705;-69
2023/09/28 11:35:24;;;;;;;6.97;2.75;;;;;;;23.64;52.76;95115.47;5051477;28;20191;-69
2023/09/28 11:37:58;;;;;;;5.00;2.45;;;;;;;23.85;52.11;95115.22;5051271;28;20282;-69
2023/09/28 11:40:24;;;;;;;7.65;2.40;;;;;;;23.85;51.20;95112.53;5051254;28;20194;-69
2023/09/28 11:42:52;;;;;;;4.18;2.15;;;;;;;23.86;51.25;95114.94;5051277;28;20586;-69
2023/09/28 11:45:18;;;;;;;8.15;2.83;;;;;;;23.99;51.18;95116.91;5051328;28;20186;-69
2023/09/28 11:47:46;;;;;;;9.23;2.88;;;;;;;23.99;50.80;95108.06;5051090;28;20171;-69
2023/09/28 11:50:12;;;;;;;6.82;2.50;;;;;;;24.24;50.08;95120.41;5033329;28;20183;-69
2023/09/28 11:52:37;;;;;;;5.25;2.90;;;;;;;24.28;50.41;95126.81;5051132;28;20171;-69
2023/09/28 11:55:05;;;;;;;4.88;2.85;;;;;;;24.41;49.28;95120.69;5051281;28;20191;-69
2023/09/28 11:57:35;;;;;;;6.25;2.55;;;;;;;24.31;49.75;95129.69;5051121;28;20673;-69
2023/09/28 12:00:01;;;;;;;8.43;3.42;;;;;;;24.06;50.06;95109.28;5050750;28;20221;-69
2023/09/28 12:02:28;;;;;;;6.75;3.17;;;;;;;24.10;50.50;95114.91;5050916;28;20178;-69
2023/09/28 12:04:53;;;;;;;5.22;3.08;;;;;;;23.99;50.70;95113.44;5050903;28;20213;-69
2023/09/28 12:07:19;;;;;;;7.53;2.88;;;;;;;23.90;51.63;95109.78;5050749;28;20175;-69
2023/09/28 12:09:45;;;;;;;7.40;2.83;;;;;;;23.95;51.25;95105.16;5051015;28;20167;-69
2023/09/28 12:12:10;;;;;;;6.85;2.83;;;;;;;24.09;51.13;95113.31;5050572;28;20189;-69
2023/09/28 12:14:35;;;;;;;4.60;2.78;;;;;;;24.10;51.21;95114.09;5050660;28;20674;-69
2023/09/28 12:17:01;;;;;;;3.53;2.38;;;;;;;23.93;51.23;95117.28;5050621;28;20175;-69
2023/09/28 12:19:26;;;;;;;7.03;2.67;;;;;;;23.64;51.61;95112.75;5050642;28;20588;-69
2023/09/28 12:21:51;;;;;;;5.25;2.63;;;;;;;23.56;52.08;95112.59;5051198;28;20289;-69
2023/09/28 12:24:17;;;;;;;5.60;2.67;;;;;;;23.63;51.84;95105.78;5050647;28;20598;-69
2023/09/28 12:26:42;;;;;;;6.78;2.85;;;;;;;23.72;51.50;95119.41;5050611;28;20178;-69
2023/09/28 12:29:08;;;;;;;7.53;2.75;;;;;;;23.75;50.80;95116.16;5050558;28;20238;-69
2023/09/28 12:31:35;;;;;;;7.80;2.70;;;;;;;23.65;51.32;95111.69;5050570;28;20179;-69
2023/09/28 12:34:00;;;;;;;6.15;3.00;;;;;;;23.50;51.55;95114.56;5050263;28;20214;-69
2023/09/28 12:36:27;;;;;;;8.00;2.90;;;;;;;23.31;51.95;95086.75;5050346;28;20179;-69
2023/09/28 12:38:53;;;;;;;6.43;2.65;;;;;;;23.46;52.04;95108.09;5050282;28;20309;-69
2023/09/28 12:41:18;;;;;;;5.40;3.03;;;;;;;23.31;52.12;95109.06;5050257;28;20289;-69
2023/09/28 12:43:45;;;;;;;6.00;2.70;;;;;;;23.23;52.54;95107.00;5050173;28;20179;-69
2023/09/28 12:46:11;;;;;;;8.75;2.90;;;;;;;23.24;52.48;95107.81;5050105;28;20175;-69
2023/09/28 12:48:36;;;;;;;8.18;3.22;;;;;;;23.18;52.68;95104.34;5050101;28;20634;-69
2023/09/28 12:51:02;;;;;;;10.43;2.50;;;;;;;23.27;52.58;95107.22;5050095;28;20643;-68
2023/09/28 12:53:27;;;;;;;3.80;2.63;;;;;;;23.36;52.45;95102.81;5050042;28;20171;-69
2023/09/28 12:55:53;;;;;;;4.63;2.70;;;;;;;23.51;52.21;95101.91;5050192;28;20232;-69
2023/09/28 12:58:19;;;;;;;10.95;3.03;;;;;;;23.60;51.73;95102.88;5050108;28;20175;-69
2023/09/28 13:00:45;;;;;;;6.82;2.25;;;;;;;23.70;51.55;95084.72;5049844;28;20209;-69
2023/09/28 13:03:10;;;;;;;8.65;2.50;;;;;;;23.81;51.19;95082.72;5050258;28;20635;-69
2023/09/28 13:05:41;;;;;;;5.55;2.25;;;;;;;24.00;50.89;95094.31;5049986;28;20201;-69
2023/09/28 13:08:11;;;;;;;6.22;2.97;;;;;;;24.05;50.83;95093.44;5049824;28;20221;-69
2023/09/28 13:10:38;;;;;;;6.13;2.35;;;;;;;24.01;50.52;95103.19;5048969;28;20655;-69
2023/09/28 13:13:05;;;;;;;5.63;2.30;;;;;;;23.90;50.74;95099.00;5049994;28;20257;-68
2023/09/28 13:15:31;;;;;;;5.43;2.47;;;;;;;23.84;50.93;95105.56;5049958;28;20175;-69
2023/09/28 13:18:00;;;;;;;13.98;3.15;;;;;;;23.77;51.01;95100.53;5049977;28;20662;-68
2023/09/28 13:20:27;;;;;;;9.02;2.60;;;;;;;23.70;51.42;95100.84;5049797;28;20230;-69
2023/09/28 13:22:57;;;;;;;6.53;2.40;;;;;;;23.80;51.48;95101.81;5031967;28;20174;-69
2023/09/28 13:25:24;;;;;;;10.52;2.83;;;;;;;23.94;50.78;95100.84;5049310;28;20667;-69
2023/09/28 13:27:52;;;;;;;9.75;3.10;;;;;;;23.97;50.41;95107.53;5050145;28;20175;-69
2023/09/28 13:30:24;;;;;;;11.52;2.58;;;;;;;24.02;50.82;95102.09;5049835;28;20190;-69
2023/09/28 13:32:53;;;;;;;9.02;2.58;;;;;;;23.98;50.86;95093.00;5049701;28;20213;-69
2023/09/28 13:35:19;;;;;;;12.43;3.40;;;;;;;23.95;50.94;95096.28;5049601;28;20222;-69
2023/09/28 13:37:45;;;;;;;6.85;2.42;;;;;;;23.89;51.11;95090.16;5049962;28;20205;-69
2023/09/28 13:40:22;;;;;;;12.35;3.22;;;;;;;23.95;51.01;95104.34;5049697;28;20187;-69
2023/09/28 13:42:49;;;;;;;8.63;2.78;;;;;;;23.98;51.01;95103.75;5049775;28;20198;-71
2023/09/28 13:45:17;;;;;;;9.18;3.95;;;;;;;23.92;51.03;95100.34;5049738;28;20179;-69
2023/09/28 13:47:42;;;;;;;5.68;2.50;;;;;;;23.82;51.01;95092.38;5049623;28;20175;-69
2023/09/28 13:50:10;;;;;;;11.38;2.88;;;;;;;23.77;50.91;95086.28;5049924;28;20178;-71